createdAt,value
2022-09-30T00:01:26.006Z,14.45
2022-09-30T00:03:53.861Z,13.48
2022-09-30T00:06:21.154Z,12.82
2022-09-30T00:08:48.443Z,25.05
2022-09-30T00:11:18.503Z,26.20
2022-09-30T00:13:47.249Z,8.00
2022-09-30T00:16:15.662Z,7.72
2022-09-30T00:18:43.584Z,7.90
2022-09-30T00:21:12.463Z,9.00
2022-09-30T00:23:40.314Z,10.13
2022-09-30T00:26:12.224Z,8.52
2022-09-30T00:28:40.315Z,7.72
2022-09-30T00:31:10.968Z,8.23
2022-09-30T00:33:37.966Z,10.82
2022-09-30T00:36:05.341Z,6.93
2022-09-30T00:38:32.587Z,6.07
2022-09-30T00:41:01.184Z,7.40
2022-09-30T00:43:53.409Z,7.95
2022-09-30T00:46:40.985Z,8.05
2022-09-30T00:49:17.442Z,13.95
2022-09-30T00:51:51.729Z,24.73
2022-09-30T00:54:22.175Z,29.85
2022-09-30T00:56:56.033Z,17.25
2022-09-30T00:59:26.287Z,21.25
2022-09-30T01:01:54.092Z,24.23
2022-09-30T01:04:22.831Z,24.80
2022-09-30T01:06:50.419Z,67.45
2022-09-30T01:09:18.503Z,46.22
2022-09-30T01:11:46.279Z,23.05
2022-09-30T01:14:19.387Z,7.68
2022-09-30T01:17:11.063Z,10.38
2022-09-30T01:19:58.249Z,16.90
2022-09-30T01:22:31.018Z,6.63
2022-09-30T01:25:04.401Z,5.53
2022-09-30T01:27:50.056Z,7.40
2022-09-30T01:30:21.403Z,6.70
2022-09-30T01:33:23.390Z,8.15
2022-09-30T01:35:59.286Z,5.88
2022-09-30T01:38:29.477Z,6.03
2022-09-30T01:41:05.780Z,7.30
2022-09-30T01:43:47.871Z,7.80
2022-09-30T01:46:34.157Z,6.07
2022-09-30T01:49:12.771Z,6.25
2022-09-30T01:52:03.191Z,5.38
2022-09-30T01:54:39.256Z,7.43
2022-09-30T01:57:11.418Z,8.10
2022-09-30T01:59:46.423Z,9.15
2022-09-30T02:02:19.736Z,9.05
2022-09-30T02:05:03.831Z,9.70
2022-09-30T02:07:35.828Z,9.60
2022-09-30T02:10:10.511Z,8.82
2022-09-30T02:12:42.041Z,7.95
2022-09-30T02:15:12.532Z,7.80
2022-09-30T02:17:48.984Z,6.47
2022-09-30T02:20:21.003Z,6.55
2022-09-30T02:22:50.708Z,6.32
2022-09-30T02:25:23.493Z,6.05
2022-09-30T02:27:57.266Z,5.82
2022-09-30T02:30:24.347Z,5.22
2022-09-30T02:32:56.790Z,5.78
2022-09-30T02:35:45.680Z,5.65
2022-09-30T02:38:19.373Z,4.93
2022-09-30T02:40:52.618Z,5.32
2022-09-30T02:43:20.758Z,4.82
2022-09-30T02:46:25.195Z,4.97
2022-09-30T02:48:58.316Z,4.40
2022-09-30T02:51:49.487Z,4.55
2022-09-30T02:54:36.422Z,4.78
2022-09-30T02:57:41.750Z,4.50
2022-09-30T03:00:12.942Z,4.68
2022-09-30T03:02:41.153Z,5.32
2022-09-30T03:05:09.835Z,4.88
2022-09-30T03:07:37.939Z,5.03
2022-09-30T03:10:15.553Z,5.07
2022-09-30T03:12:48.595Z,4.75
2022-09-30T03:15:42.872Z,4.15
2022-09-30T03:18:31.923Z,4.05
2022-09-30T03:21:20.537Z,4.53
2022-09-30T03:24:10.387Z,4.50
2022-09-30T03:26:41.777Z,4.65
2022-09-30T03:29:18.009Z,5.50
2022-09-30T03:32:00.882Z,6.18
2022-09-30T03:34:33.289Z,4.20
2022-09-30T03:37:26.101Z,54.88
2022-09-30T03:39:55.316Z,34.90
2022-09-30T03:42:38.688Z,14.90
2022-09-30T03:45:37.183Z,19.27
2022-09-30T03:48:07.465Z,15.07
2022-09-30T03:50:36.560Z,17.02
2022-09-30T03:53:04.432Z,6.50
2022-09-30T03:55:33.484Z,6.38
2022-09-30T03:58:00.550Z,5.35
2022-09-30T04:00:27.503Z,73.20
2022-09-30T04:02:57.760Z,104.35
2022-09-30T04:05:25.399Z,15.85
2022-09-30T04:07:52.521Z,9.10
2022-09-30T04:10:19.578Z,18.33
2022-09-30T04:12:46.622Z,12.07
2022-09-30T04:15:13.419Z,8.35
2022-09-30T04:17:40.289Z,6.32
2022-09-30T04:20:07.545Z,6.32
2022-09-30T04:22:34.484Z,6.35
2022-09-30T04:25:01.282Z,7.85
2022-09-30T04:27:30.266Z,5.55
2022-09-30T04:29:57.067Z,5.05
2022-09-30T04:32:25.701Z,9.65
2022-09-30T04:34:54.182Z,6.35
2022-09-30T04:37:21.345Z,5.85
2022-09-30T04:39:48.124Z,6.30
2022-09-30T04:42:15.203Z,5.72
2022-09-30T04:44:42.311Z,6.15
2022-09-30T04:47:09.292Z,5.78
2022-09-30T04:49:36.412Z,5.75
2022-09-30T04:52:03.321Z,5.85
2022-09-30T04:54:30.148Z,6.55
2022-09-30T04:56:57.220Z,7.55
2022-09-30T04:59:24.246Z,8.68
2022-09-30T05:01:51.217Z,10.82
2022-09-30T05:04:18.283Z,23.85
2022-09-30T05:06:45.121Z,57.63
2022-09-30T05:09:12.099Z,64.28
2022-09-30T05:11:40.838Z,67.30
2022-09-30T05:14:09.222Z,63.45
2022-09-30T05:16:36.280Z,45.25
2022-09-30T05:19:04.003Z,41.22
2022-09-30T05:21:30.880Z,50.65
2022-09-30T05:23:58.543Z,26.52
2022-09-30T05:26:25.717Z,21.23
2022-09-30T05:28:52.683Z,28.17
2022-09-30T05:31:21.028Z,19.38
2022-09-30T05:33:48.659Z,22.65
2022-09-30T05:36:16.611Z,14.88
2022-09-30T05:38:43.514Z,13.80
2022-09-30T05:41:12.669Z,13.02
2022-09-30T05:43:40.672Z,11.20
2022-09-30T05:46:07.848Z,11.95
2022-09-30T05:48:35.187Z,12.10
2022-09-30T05:51:02.439Z,10.93
2022-09-30T05:53:32.137Z,11.93
2022-09-30T05:55:59.666Z,12.90
2022-09-30T05:58:27.594Z,12.15
2022-09-30T06:00:54.964Z,11.73
2022-09-30T06:03:22.028Z,12.63
2022-09-30T06:05:49.158Z,23.73
2022-09-30T06:08:16.105Z,14.48
2022-09-30T06:10:44.746Z,14.15
2022-09-30T06:13:12.058Z,12.18
2022-09-30T06:15:41.385Z,14.30
2022-09-30T06:18:08.758Z,13.30
2022-09-30T06:20:36.734Z,14.27
2022-09-30T06:23:03.851Z,14.60
2022-09-30T06:25:31.406Z,16.15
2022-09-30T06:27:58.676Z,16.50
2022-09-30T06:30:25.605Z,15.77
2022-09-30T06:32:54.145Z,17.33
2022-09-30T06:35:24.060Z,16.70
2022-09-30T06:37:51.772Z,16.65
2022-09-30T06:40:21.266Z,16.55
2022-09-30T06:42:49.462Z,16.90
2022-09-30T06:45:30.191Z,16.98
2022-09-30T06:48:01.223Z,16.58
2022-09-30T06:50:30.902Z,18.85
2022-09-30T06:53:02.172Z,15.30
2022-09-30T06:55:30.250Z,16.35
2022-09-30T06:57:57.377Z,16.98
2022-09-30T07:00:25.444Z,15.95
2022-09-30T07:02:55.055Z,16.00
2022-09-30T07:05:22.007Z,15.45
2022-09-30T07:07:49.257Z,14.82
2022-09-30T07:10:16.482Z,15.40
2022-09-30T07:12:43.300Z,15.43
2022-09-30T07:15:13.560Z,14.93
2022-09-30T07:17:40.944Z,15.63
2022-09-30T07:20:08.394Z,14.35
2022-09-30T07:22:35.288Z,15.35
2022-09-30T07:25:03.893Z,15.70
2022-09-30T07:27:32.700Z,14.93
2022-09-30T07:32:47.911Z,14.75
2022-09-30T07:35:14.886Z,14.48
2022-09-30T07:37:41.788Z,15.50
2022-09-30T07:40:09.582Z,14.70
2022-09-30T07:42:46.052Z,14.38
2022-09-30T07:45:17.111Z,15.73
2022-09-30T07:47:44.121Z,14.43
2022-09-30T07:50:13.418Z,14.90
2022-09-30T07:52:40.420Z,14.77
2022-09-30T07:55:07.772Z,14.00
2022-09-30T07:57:34.660Z,13.98
2022-09-30T08:00:12.021Z,13.57
2022-09-30T08:02:48.638Z,13.25
2022-09-30T08:05:15.713Z,13.80
2022-09-30T08:07:42.526Z,13.65
2022-09-30T08:10:09.789Z,13.40
2022-09-30T08:12:37.391Z,13.10
2022-09-30T08:15:06.158Z,13.38
2022-09-30T08:17:33.153Z,12.75
2022-09-30T08:20:00.333Z,13.80
2022-09-30T08:22:28.243Z,13.40
2022-09-30T08:24:55.053Z,13.82
2022-09-30T08:27:22.382Z,12.95
2022-09-30T08:29:58.418Z,13.65
2022-09-30T08:32:30.907Z,13.70
2022-09-30T08:34:57.805Z,12.63
2022-09-30T08:37:24.640Z,12.07
2022-09-30T08:39:51.693Z,11.80
2022-09-30T08:43:04.040Z,11.73
2022-09-30T08:45:44.182Z,12.25
2022-09-30T08:48:39.337Z,11.63
2022-09-30T08:51:32.075Z,11.88
2022-09-30T08:54:02.555Z,12.02
2022-09-30T08:56:32.170Z,12.10
2022-09-30T08:59:07.253Z,11.52
2022-09-30T09:01:36.824Z,11.73
2022-09-30T09:04:05.931Z,12.85
2022-09-30T09:06:52.803Z,11.60
2022-09-30T09:09:46.879Z,12.07
2022-09-30T09:12:35.337Z,11.18
2022-09-30T09:15:37.893Z,13.13
2022-09-30T09:18:24.283Z,11.35
2022-09-30T09:20:55.962Z,11.38
2022-09-30T09:23:23.519Z,11.63
2022-09-30T09:25:53.151Z,11.48
2022-09-30T09:28:35.474Z,11.57
2022-09-30T09:31:03.452Z,12.07
2022-09-30T09:33:39.787Z,11.30
2022-09-30T09:36:34.093Z,12.18
2022-09-30T09:39:26.604Z,10.45
2022-09-30T09:42:42.179Z,11.50
2022-09-30T09:45:22.833Z,11.35
2022-09-30T09:47:57.974Z,12.15
2022-09-30T09:51:06.089Z,12.02
2022-09-30T09:53:58.145Z,11.95
2022-09-30T09:56:32.463Z,11.55
2022-09-30T09:59:05.845Z,12.00
2022-09-30T10:01:34.711Z,11.68
2022-09-30T10:04:15.916Z,11.65
2022-09-30T10:06:54.627Z,13.45
2022-09-30T10:09:36.049Z,11.52
2022-09-30T10:12:06.235Z,12.02
2022-09-30T10:14:48.201Z,11.73
2022-09-30T10:17:20.779Z,10.88
2022-09-30T10:19:51.400Z,11.10
2022-09-30T10:22:20.510Z,10.32
2022-09-30T10:24:47.314Z,11.88
2022-09-30T10:27:32.002Z,11.30
2022-09-30T10:29:59.127Z,10.65
2022-09-30T10:32:26.418Z,10.48
2022-09-30T10:35:18.449Z,10.07
2022-09-30T10:37:52.853Z,10.38
2022-09-30T10:40:28.756Z,10.05
2022-09-30T10:42:56.877Z,12.00
2022-09-30T10:45:33.288Z,10.38
2022-09-30T10:48:06.981Z,11.07
2022-09-30T10:50:33.968Z,10.73
2022-09-30T10:53:05.126Z,10.70
2022-09-30T10:55:35.025Z,11.38
2022-09-30T10:58:22.369Z,11.43
2022-09-30T11:00:55.253Z,11.25
2022-09-30T11:03:25.777Z,10.43
2022-09-30T11:05:52.641Z,11.32
2022-09-30T11:08:42.786Z,11.20
2022-09-30T11:11:14.314Z,12.45
2022-09-30T11:13:54.732Z,10.63
2022-09-30T11:16:30.355Z,11.77
2022-09-30T11:19:10.770Z,10.32
2022-09-30T11:21:42.683Z,10.27
2022-09-30T11:24:36.125Z,9.88
2022-09-30T11:27:15.534Z,10.85
2022-09-30T11:30:01.211Z,11.50
2022-09-30T11:32:50.305Z,11.45
2022-09-30T11:35:57.985Z,10.55
2022-09-30T11:38:52.922Z,9.85
2022-09-30T11:41:32.564Z,10.82
2022-09-30T11:44:21.998Z,10.18
2022-09-30T11:47:07.930Z,9.55
2022-09-30T11:50:16.739Z,9.23
2022-09-30T11:53:04.022Z,9.27
2022-09-30T11:55:59.335Z,9.30
2022-09-30T11:58:40.977Z,10.25
2022-09-30T12:01:46.662Z,9.63
2022-09-30T12:04:17.300Z,10.00
2022-09-30T12:06:50.924Z,10.20
2022-09-30T12:09:27.060Z,10.77
2022-09-30T12:11:58.347Z,11.23
2022-09-30T12:14:57.687Z,11.55
2022-09-30T12:17:32.618Z,11.35
2022-09-30T12:20:05.473Z,12.93
2022-09-30T12:22:41.440Z,12.80
2022-09-30T12:25:18.616Z,12.25
2022-09-30T12:27:49.700Z,11.27
2022-09-30T12:30:20.355Z,10.93
2022-09-30T12:33:11.852Z,11.30
2022-09-30T12:35:49.678Z,12.10
2022-09-30T12:38:25.876Z,12.05
2022-09-30T12:41:11.977Z,13.50
2022-09-30T12:43:54.574Z,13.05
2022-09-30T12:46:52.200Z,12.98
2022-09-30T12:49:23.637Z,12.98
2022-09-30T12:51:54.995Z,13.30
2022-09-30T12:54:28.147Z,13.90
2022-09-30T12:57:00.532Z,13.93
2022-09-30T12:59:30.553Z,13.27
2022-09-30T13:01:58.597Z,14.00
2022-09-30T13:04:39.673Z,15.25
2022-09-30T13:07:09.749Z,13.93
2022-09-30T13:09:56.260Z,13.60
2022-09-30T13:12:45.941Z,13.05
2022-09-30T13:15:45.793Z,13.32
2022-09-30T13:18:26.934Z,12.30
2022-09-30T13:20:56.955Z,12.10
2022-09-30T13:23:49.784Z,12.85
2022-09-30T13:26:22.434Z,12.10
2022-09-30T13:28:50.921Z,11.48
2022-09-30T13:31:22.958Z,11.77
2022-09-30T13:34:02.288Z,14.18
2022-09-30T13:36:44.387Z,13.80
2022-09-30T13:39:29.205Z,12.50
2022-09-30T13:42:05.081Z,13.00
2022-09-30T13:45:16.401Z,13.30
2022-09-30T13:47:51.878Z,12.20
2022-09-30T13:50:24.151Z,12.75
2022-09-30T13:52:54.507Z,13.05
2022-09-30T13:55:25.711Z,13.57
2022-09-30T13:58:01.921Z,13.60
2022-09-30T14:00:55.369Z,13.75
2022-09-30T14:03:53.455Z,12.30
2022-09-30T14:06:46.305Z,11.80
2022-09-30T14:09:39.573Z,12.43
2022-09-30T14:12:23.475Z,12.40
2022-09-30T14:15:31.810Z,12.82
2022-09-30T14:18:28.060Z,14.27
2022-09-30T14:21:16.494Z,14.07
2022-09-30T14:23:44.438Z,14.27
2022-09-30T14:26:11.604Z,12.98
2022-09-30T14:28:49.324Z,14.05
2022-09-30T14:31:16.453Z,14.10
2022-09-30T14:33:45.449Z,14.52
2022-09-30T14:36:15.378Z,15.10
2022-09-30T14:38:46.214Z,16.08
2022-09-30T14:41:17.694Z,15.10
2022-09-30T14:43:46.239Z,15.60
2022-09-30T14:46:47.144Z,15.43
2022-09-30T14:49:17.299Z,13.20
2022-09-30T14:51:47.122Z,13.48
2022-09-30T14:54:26.590Z,14.02
2022-09-30T14:56:56.546Z,13.35
2022-09-30T14:59:28.203Z,12.98
2022-09-30T15:02:02.989Z,13.57
2022-09-30T15:04:33.063Z,13.05
2022-09-30T15:07:03.598Z,13.77
2022-09-30T15:09:38.024Z,13.75
2022-09-30T15:12:13.036Z,15.40
2022-09-30T15:14:50.555Z,14.45
2022-09-30T15:17:29.375Z,15.38
2022-09-30T15:19:57.615Z,14.25
2022-09-30T15:22:27.212Z,15.20
2022-09-30T15:24:54.492Z,14.30
2022-09-30T15:27:26.002Z,15.10
2022-09-30T15:30:01.481Z,14.93
2022-09-30T15:32:34.091Z,13.68
2022-09-30T15:35:17.092Z,13.25
2022-09-30T15:37:44.288Z,13.63
2022-09-30T15:40:38.580Z,15.00
2022-09-30T15:43:07.828Z,13.50
2022-09-30T15:45:44.997Z,13.95
2022-09-30T15:48:26.718Z,13.82
2022-09-30T15:50:55.910Z,13.82
2022-09-30T15:53:31.474Z,14.98
2022-09-30T15:56:00.393Z,16.60
2022-09-30T15:58:32.637Z,16.60
2022-09-30T16:01:11.628Z,16.60
2022-09-30T16:03:38.641Z,16.77
2022-09-30T16:06:11.122Z,18.65
2022-09-30T16:08:50.171Z,15.73
2022-09-30T16:11:23.537Z,16.58
2022-09-30T16:13:50.694Z,14.10
2022-09-30T16:16:22.315Z,13.13
2022-09-30T16:18:50.281Z,13.73
2022-09-30T16:21:44.017Z,13.60
2022-09-30T16:24:36.977Z,13.20
2022-09-30T16:27:26.936Z,12.70
2022-09-30T16:29:54.230Z,13.30
2022-09-30T16:32:21.156Z,13.02
2022-09-30T16:34:48.021Z,13.30
2022-09-30T16:37:18.741Z,13.05
2022-09-30T16:39:45.649Z,12.80
2022-09-30T16:42:14.450Z,12.45
2022-09-30T16:44:44.428Z,12.23
2022-09-30T16:47:19.314Z,12.57
2022-09-30T16:49:47.146Z,13.48
2022-09-30T16:52:14.454Z,13.73
2022-09-30T16:54:42.723Z,12.73
2022-09-30T16:57:12.679Z,12.10
2022-09-30T16:59:39.520Z,11.82
2022-09-30T17:02:07.372Z,12.60
2022-09-30T17:04:38.659Z,12.13
2022-09-30T17:07:05.771Z,12.25
2022-09-30T17:09:32.826Z,12.95
2022-09-30T17:12:01.185Z,12.32
2022-09-30T17:14:29.825Z,12.27
2022-09-30T17:16:57.210Z,13.60
2022-09-30T17:19:24.783Z,13.35
2022-09-30T17:21:51.724Z,14.43
2022-09-30T17:24:20.881Z,13.20
2022-09-30T17:26:48.155Z,13.60
2022-09-30T17:29:33.038Z,14.35
2022-09-30T17:32:00.894Z,13.23
2022-09-30T17:34:28.145Z,14.45
2022-09-30T17:36:56.236Z,14.63
2022-09-30T17:39:25.931Z,14.48
2022-09-30T17:42:11.356Z,15.10
2022-09-30T17:44:39.187Z,15.35
2022-09-30T17:47:06.073Z,15.45
2022-09-30T17:49:34.351Z,15.55
2022-09-30T17:52:02.156Z,15.98
2022-09-30T17:54:29.336Z,16.40
2022-09-30T17:56:57.255Z,16.10
2022-09-30T17:59:26.845Z,15.07
2022-09-30T18:01:56.400Z,14.80
2022-09-30T18:04:26.123Z,15.85
2022-09-30T18:06:54.282Z,15.13
2022-09-30T18:09:21.960Z,14.55
2022-09-30T18:11:49.058Z,14.45
2022-09-30T18:14:16.216Z,13.68
2022-09-30T18:16:43.199Z,13.00
2022-09-30T18:19:10.148Z,14.05
2022-09-30T18:21:38.057Z,14.27
2022-09-30T18:24:05.790Z,14.68
2022-09-30T18:26:35.640Z,13.77
2022-09-30T18:29:04.255Z,13.88
2022-09-30T18:31:38.560Z,14.15
2022-09-30T18:34:06.395Z,14.80
2022-09-30T18:36:33.353Z,15.20
2022-09-30T18:39:02.159Z,14.43
2022-09-30T18:41:31.862Z,14.82
2022-09-30T18:44:02.983Z,15.63
2022-09-30T18:46:31.467Z,13.75
2022-09-30T18:48:58.344Z,14.30
2022-09-30T18:51:25.396Z,14.77
2022-09-30T18:53:58.118Z,13.70
2022-09-30T18:56:31.796Z,14.10
2022-09-30T18:59:04.643Z,14.15
2022-09-30T19:01:33.797Z,13.77
2022-09-30T19:04:03.051Z,12.65
2022-09-30T19:06:29.884Z,13.15
2022-09-30T19:08:56.889Z,12.43
2022-09-30T19:11:25.049Z,12.63
2022-09-30T19:13:52.692Z,11.52
2022-09-30T19:16:19.893Z,12.32
2022-09-30T19:18:47.004Z,11.82
2022-09-30T19:21:16.166Z,12.00
2022-09-30T19:23:43.006Z,12.18
2022-09-30T19:26:10.888Z,11.55
2022-09-30T19:28:37.836Z,12.70
2022-09-30T19:31:16.966Z,11.65
2022-09-30T19:33:55.481Z,11.57
2022-09-30T19:36:25.474Z,11.70
2022-09-30T19:39:05.270Z,12.20
2022-09-30T19:41:35.738Z,13.27
2022-09-30T19:44:03.254Z,13.60
2022-09-30T19:46:30.191Z,13.48
2022-09-30T19:48:57.063Z,14.82
2022-09-30T19:51:24.272Z,15.18
2022-09-30T19:54:02.549Z,14.80
2022-09-30T19:56:33.078Z,14.05
2022-09-30T19:59:00.204Z,14.32
2022-09-30T20:01:28.550Z,15.35
2022-09-30T20:03:57.569Z,13.75
2022-09-30T20:06:24.413Z,13.23
2022-09-30T20:08:53.146Z,14.02
2022-09-30T20:11:21.992Z,13.02
2022-09-30T20:13:50.276Z,13.27
2022-09-30T20:16:17.459Z,12.90
2022-09-30T20:18:44.510Z,12.63
2022-09-30T20:21:15.935Z,12.68
2022-09-30T20:23:44.358Z,13.02
2022-09-30T20:26:15.928Z,12.80
2022-09-30T20:28:43.307Z,13.73
2022-09-30T20:31:14.609Z,13.82
2022-09-30T20:33:42.377Z,13.40
2022-09-30T20:36:10.976Z,13.57
2022-09-30T20:38:38.982Z,14.45
2022-09-30T20:41:06.456Z,17.40
2022-09-30T20:43:33.665Z,17.52
2022-09-30T20:46:02.289Z,17.13
2022-09-30T20:48:34.615Z,18.73
2022-09-30T20:51:10.112Z,21.55
2022-09-30T20:53:39.663Z,19.70
2022-09-30T20:56:08.084Z,21.85
2022-09-30T20:58:35.679Z,21.45
2022-09-30T21:01:18.541Z,23.58
2022-09-30T21:03:52.638Z,23.67
2022-09-30T21:06:21.848Z,25.58
2022-09-30T21:08:50.814Z,25.80
2022-09-30T21:11:18.628Z,27.08
2022-09-30T21:13:47.417Z,26.98
2022-09-30T21:16:16.343Z,28.45
2022-09-30T21:18:44.293Z,28.60
2022-09-30T21:21:13.419Z,27.48
2022-09-30T21:23:40.856Z,26.73
2022-09-30T21:26:12.905Z,27.88
2022-09-30T21:28:40.827Z,27.15
2022-09-30T21:31:24.826Z,27.40
2022-09-30T21:33:53.572Z,27.50
2022-09-30T21:36:21.353Z,25.33
2022-09-30T21:38:49.719Z,26.17
2022-09-30T21:41:17.654Z,26.73
2022-09-30T21:43:44.533Z,27.02
2022-09-30T21:46:14.691Z,27.55
2022-09-30T21:48:42.579Z,26.08
2022-09-30T21:51:10.143Z,25.80
2022-09-30T21:53:38.966Z,25.73
2022-09-30T21:56:06.927Z,23.98
2022-09-30T21:58:34.078Z,26.23
2022-09-30T22:01:03.708Z,25.65
2022-09-30T22:03:36.065Z,25.92
2022-09-30T22:06:07.194Z,25.50
2022-09-30T22:08:36.377Z,27.40
2022-09-30T22:11:08.161Z,26.20
2022-09-30T22:13:36.345Z,26.60
2022-09-30T22:16:07.120Z,25.83
2022-09-30T22:18:34.230Z,26.05
2022-09-30T22:21:10.033Z,25.92
2022-09-30T22:23:36.915Z,26.10
2022-09-30T22:26:12.187Z,25.58
2022-09-30T22:28:39.345Z,27.27
2022-09-30T22:31:20.417Z,23.70
2022-09-30T22:34:07.611Z,24.88
2022-09-30T22:36:54.027Z,23.67
2022-09-30T22:39:21.795Z,23.67
2022-09-30T22:41:50.390Z,23.27
2022-09-30T22:44:17.771Z,22.10
2022-09-30T22:46:45.042Z,21.38
2022-09-30T22:49:12.024Z,21.48
2022-09-30T22:51:38.979Z,21.33
2022-09-30T22:54:05.903Z,20.17
2022-09-30T22:56:33.109Z,19.95
2022-09-30T22:59:00.591Z,19.92
2022-09-30T23:01:29.421Z,19.02
2022-09-30T23:03:56.694Z,17.70
2022-09-30T23:06:24.650Z,17.17
2022-09-30T23:08:52.538Z,17.00
2022-09-30T23:11:21.517Z,15.25
2022-09-30T23:13:48.285Z,16.10
2022-09-30T23:16:16.205Z,15.45
2022-09-30T23:18:46.327Z,16.48
2022-09-30T23:21:16.004Z,16.00
2022-09-30T23:23:43.618Z,16.05
2022-09-30T23:26:16.386Z,15.38
2022-09-30T23:28:43.439Z,15.23
2022-09-30T23:31:13.035Z,13.80
2022-09-30T23:33:46.957Z,14.18
2022-09-30T23:36:15.982Z,14.18
2022-09-30T23:38:43.114Z,14.65
2022-09-30T23:41:10.051Z,14.18
2022-09-30T23:43:37.202Z,12.98
2022-09-30T23:46:06.363Z,12.57
2022-09-30T23:48:34.694Z,12.55
2022-09-30T23:51:01.528Z,12.50
2022-09-30T23:53:28.820Z,12.60
2022-09-30T23:56:02.891Z,12.00
2022-09-30T23:58:31.144Z,11.93
